createdAt,value
2023-03-05T00:01:31.035Z,96908.72
2023-03-05T00:03:59.194Z,96903.50
2023-03-05T00:06:29.138Z,96908.78
2023-03-05T00:08:58.600Z,96903.78
2023-03-05T00:11:30.168Z,96902.88
2023-03-05T00:13:58.777Z,96901.81
2023-03-05T00:16:27.622Z,96909.41
2023-03-05T00:18:56.338Z,96905.34
2023-03-05T00:21:32.781Z,96907.06
2023-03-05T00:24:01.724Z,96910.44
2023-03-05T00:26:30.449Z,96895.47
2023-03-05T00:28:58.376Z,96902.47
2023-03-05T00:31:31.064Z,96894.69
2023-03-05T00:34:01.032Z,96906.28
2023-03-05T00:36:29.494Z,96891.16
2023-03-05T00:38:57.473Z,96896.00
2023-03-05T00:41:25.314Z,96909.44
2023-03-05T00:43:52.930Z,96900.16
2023-03-05T00:46:20.553Z,96902.56
2023-03-05T00:48:48.108Z,96904.97
2023-03-05T00:51:15.859Z,96908.19
2023-03-05T00:53:43.459Z,96898.00
2023-03-05T00:56:11.126Z,96900.56
2023-03-05T00:58:38.939Z,96905.63
2023-03-05T01:01:06.929Z,96910.72
2023-03-05T01:03:35.862Z,96909.84
2023-03-05T01:06:09.891Z,96896.50
2023-03-05T01:08:37.703Z,96897.94
2023-03-05T01:11:06.721Z,96906.25
2023-03-05T01:13:34.681Z,96897.84
2023-03-05T01:16:03.048Z,96903.72
2023-03-05T01:18:30.926Z,96905.50
2023-03-05T01:20:58.559Z,96888.22
2023-03-05T01:23:26.619Z,96899.44
2023-03-05T01:25:58.791Z,96899.72
2023-03-05T01:28:28.667Z,96905.25
2023-03-05T01:30:56.254Z,96906.91
2023-03-05T01:33:23.858Z,96895.78
2023-03-05T01:35:51.691Z,96899.41
2023-03-05T01:38:19.627Z,96897.00
2023-03-05T01:40:47.279Z,96888.31
2023-03-05T01:43:28.670Z,96892.25
2023-03-05T01:46:27.152Z,96900.72
2023-03-05T01:49:01.049Z,96908.03
2023-03-05T01:51:33.596Z,96896.13
2023-03-05T01:54:03.380Z,96893.84
2023-03-05T01:56:31.206Z,96907.72
2023-03-05T01:59:03.675Z,96897.25
2023-03-05T02:01:39.717Z,96899.84
2023-03-05T02:04:10.476Z,96897.72
2023-03-05T02:06:41.231Z,96904.25
2023-03-05T02:09:09.716Z,96903.56
2023-03-05T02:11:37.596Z,96902.97
2023-03-05T02:14:09.036Z,96894.19
2023-03-05T02:16:38.924Z,96907.50
2023-03-05T02:19:09.238Z,96902.50
2023-03-05T02:21:42.414Z,96907.31
2023-03-05T02:24:19.955Z,96886.44
2023-03-05T02:26:47.663Z,96892.13
2023-03-05T02:29:19.631Z,96900.06
2023-03-05T02:31:47.265Z,96890.72
2023-03-05T02:34:15.444Z,96895.03
2023-03-05T02:36:42.992Z,96896.47
2023-03-05T02:39:11.045Z,96894.63
2023-03-05T02:41:38.701Z,96891.47
2023-03-05T02:44:06.570Z,96890.34
2023-03-05T02:46:34.468Z,96890.34
2023-03-05T02:49:01.962Z,96884.53
2023-03-05T02:51:31.496Z,96894.44
2023-03-05T02:53:59.806Z,96891.28
2023-03-05T02:56:29.265Z,96890.50
2023-03-05T02:58:56.901Z,96892.88
2023-03-05T03:01:28.096Z,96891.13
2023-03-05T03:03:59.464Z,96880.09
2023-03-05T03:06:27.177Z,96884.84
2023-03-05T03:08:54.968Z,96874.88
2023-03-05T03:11:22.610Z,96882.34
2023-03-05T03:13:50.101Z,96877.41
2023-03-05T03:16:17.688Z,96874.97
2023-03-05T03:18:47.680Z,96869.22
2023-03-05T03:21:20.803Z,96877.75
2023-03-05T03:23:48.480Z,96881.09
2023-03-05T03:26:17.506Z,96876.81
2023-03-05T03:28:46.687Z,96867.31
2023-03-05T03:31:14.701Z,96875.97
2023-03-05T03:33:42.600Z,96876.91
2023-03-05T03:36:11.138Z,96872.25
2023-03-05T03:38:38.752Z,96883.25
2023-03-05T03:41:08.093Z,96864.69
2023-03-05T03:43:39.057Z,96884.13
2023-03-05T03:46:07.824Z,96881.06
2023-03-05T03:48:37.233Z,96883.84
2023-03-05T03:51:07.048Z,96880.22
2023-03-05T03:53:34.769Z,96875.09
2023-03-05T03:56:05.138Z,96880.22
2023-03-05T03:58:32.840Z,96873.38
2023-03-05T04:01:03.782Z,96864.75
2023-03-05T04:03:32.303Z,96867.22
2023-03-05T04:06:01.746Z,96875.59
2023-03-05T04:08:29.451Z,96872.81
2023-03-05T04:11:01.188Z,96866.16
2023-03-05T04:13:29.312Z,96877.75
2023-03-05T04:15:57.136Z,96874.56
2023-03-05T04:18:25.058Z,96881.22
2023-03-05T04:20:54.801Z,96878.84
2023-03-05T04:23:22.363Z,96876.53
2023-03-05T04:25:49.867Z,96879.69
2023-03-05T04:28:18.000Z,96874.72
2023-03-05T04:30:45.739Z,96883.91
2023-03-05T04:33:13.653Z,96874.88
2023-03-05T04:35:41.582Z,96874.00
2023-03-05T04:38:09.781Z,96879.28
2023-03-05T04:40:39.778Z,96869.19
2023-03-05T04:43:07.655Z,96876.84
2023-03-05T04:45:35.702Z,96858.03
2023-03-05T04:48:03.556Z,96872.47
2023-03-05T04:50:31.685Z,96881.84
2023-03-05T04:53:00.767Z,96877.56
2023-03-05T04:55:28.289Z,96879.16
2023-03-05T04:57:56.931Z,96875.78
2023-03-05T05:00:25.090Z,96883.53
2023-03-05T05:02:53.103Z,96883.84
2023-03-05T05:05:24.058Z,96884.72
2023-03-05T05:07:56.469Z,96883.75
2023-03-05T05:10:28.352Z,96891.50
2023-03-05T05:12:56.082Z,96900.22
2023-03-05T05:15:24.024Z,96896.03
2023-03-05T05:17:52.649Z,96895.50
2023-03-05T05:20:22.127Z,96891.66
2023-03-05T05:22:49.671Z,96890.38
2023-03-05T05:25:17.201Z,96888.97
2023-03-05T05:27:44.811Z,96885.72
2023-03-05T05:30:13.381Z,96886.78
2023-03-05T05:33:37.157Z,96891.28
2023-03-05T05:36:42.341Z,96895.72
2023-03-05T05:44:43.300Z,96905.66
2023-03-05T05:47:11.236Z,96901.00
2023-03-05T05:49:38.847Z,96890.72
2023-03-05T05:52:08.910Z,96902.63
2023-03-05T05:54:36.526Z,96895.28
2023-03-05T05:57:04.237Z,96900.91
2023-03-05T05:59:31.740Z,96911.81
2023-03-05T06:01:59.725Z,96910.25
2023-03-05T06:04:27.482Z,96908.16
2023-03-05T06:06:55.136Z,96912.84
2023-03-05T06:09:23.750Z,96911.59
2023-03-05T06:11:51.733Z,96909.22
2023-03-05T06:14:19.216Z,96904.28
2023-03-05T06:16:48.263Z,96906.75
2023-03-05T06:19:16.404Z,96909.41
2023-03-05T06:21:43.956Z,96915.50
2023-03-05T06:24:13.579Z,96914.56
2023-03-05T06:26:41.608Z,96912.81
2023-03-05T06:29:09.127Z,96910.22
2023-03-05T06:31:39.246Z,96921.63
2023-03-05T06:34:07.833Z,96920.88
2023-03-05T06:36:35.390Z,96905.22
2023-03-05T06:39:04.735Z,96928.03
2023-03-05T06:41:33.170Z,96929.94
2023-03-05T06:44:05.099Z,96931.88
2023-03-05T06:46:37.631Z,96924.75
2023-03-05T06:49:05.743Z,96919.06
2023-03-05T06:51:39.771Z,96927.66
2023-03-05T06:54:13.471Z,96931.09
2023-03-05T06:56:45.024Z,96933.75
2023-03-05T06:59:15.410Z,96935.16
2023-03-05T07:01:44.351Z,96933.44
2023-03-05T07:04:12.972Z,96942.00
2023-03-05T07:06:44.703Z,96943.16
2023-03-05T07:09:15.881Z,96944.94
2023-03-05T07:11:44.088Z,96943.94
2023-03-05T07:14:11.703Z,96941.41
2023-03-05T07:16:39.458Z,96953.38
2023-03-05T07:19:08.090Z,96956.81
2023-03-05T07:21:39.108Z,96954.44
2023-03-05T07:24:08.844Z,96959.50
2023-03-05T07:26:41.113Z,96968.03
2023-03-05T07:29:08.726Z,96965.28
2023-03-05T07:31:36.252Z,96971.06
2023-03-05T07:34:06.643Z,96974.53
2023-03-05T07:36:35.138Z,96978.00
2023-03-05T07:39:05.070Z,96983.16
2023-03-05T07:41:33.302Z,96984.81
2023-03-05T07:44:00.789Z,96985.78
2023-03-05T07:46:31.216Z,96995.94
2023-03-05T07:48:59.007Z,96988.53
2023-03-05T07:51:27.673Z,97001.31
2023-03-05T07:53:57.666Z,97003.84
2023-03-05T07:56:29.975Z,97001.50
2023-03-05T07:59:02.596Z,97006.56
2023-03-05T08:01:31.841Z,97010.97
2023-03-05T08:03:59.811Z,97012.22
2023-03-05T08:06:27.957Z,97019.31
2023-03-05T08:08:55.793Z,97016.25
2023-03-05T08:11:23.353Z,97021.47
2023-03-05T08:13:51.388Z,97026.75
2023-03-05T08:16:21.880Z,97030.28
2023-03-05T08:18:50.138Z,97033.84
2023-03-05T08:21:26.938Z,97045.06
2023-03-05T08:23:54.491Z,97042.72
2023-03-05T08:26:25.308Z,97049.53
2023-03-05T08:28:53.120Z,97052.97
2023-03-05T08:31:23.043Z,97054.72
2023-03-05T08:33:54.070Z,97059.84
2023-03-05T08:36:22.381Z,97071.75
2023-03-05T08:38:52.879Z,97064.94
2023-03-05T08:41:21.284Z,97072.53
2023-03-05T08:43:48.992Z,97075.84
2023-03-05T08:46:18.241Z,97085.19
2023-03-05T08:48:46.099Z,97078.34
2023-03-05T08:51:19.230Z,97087.03
2023-03-05T08:53:48.931Z,97088.81
2023-03-05T08:56:18.853Z,97088.91
2023-03-05T08:58:48.423Z,97084.63
2023-03-05T09:01:15.927Z,97090.41
2023-03-05T09:03:43.881Z,97102.91
2023-03-05T09:06:13.076Z,97101.00
2023-03-05T09:08:40.904Z,97111.03
2023-03-05T09:11:14.283Z,97113.59
2023-03-05T09:13:42.067Z,97103.38
2023-03-05T09:16:15.541Z,97107.69
2023-03-05T09:18:44.464Z,97120.28
2023-03-05T09:21:17.485Z,97130.41
2023-03-05T09:23:50.098Z,97127.09
2023-03-05T09:26:21.694Z,97127.94
2023-03-05T09:28:49.274Z,97135.66
2023-03-05T09:31:17.308Z,97140.72
2023-03-05T09:33:45.019Z,97139.09
2023-03-05T09:39:38.603Z,97157.47
2023-03-05T09:42:29.796Z,97156.88
2023-03-05T09:45:15.641Z,97165.06
2023-03-05T09:48:01.634Z,97169.50
2023-03-05T09:50:32.506Z,97171.75
2023-03-05T09:53:17.541Z,97163.34
2023-03-05T09:55:50.669Z,97173.16
2023-03-05T09:58:46.230Z,97185.25
2023-03-05T10:01:17.038Z,97193.41
2023-03-05T10:04:04.405Z,97195.31
2023-03-05T10:06:36.921Z,97202.59
2023-03-05T10:09:14.691Z,97194.78
2023-03-05T10:11:55.246Z,97206.75
2023-03-05T10:14:55.497Z,97219.38
2023-03-05T10:18:01.705Z,97220.03
2023-03-05T10:20:50.410Z,97229.69
2023-03-05T10:24:03.080Z,97242.66
2023-03-05T10:26:58.509Z,97242.16
2023-03-05T10:29:35.182Z,97245.16
2023-03-05T10:32:09.522Z,97248.28
2023-03-05T10:34:49.611Z,97254.22
2023-03-05T10:37:48.778Z,97258.53
2023-03-05T10:40:37.443Z,97265.38
2023-03-05T10:43:20.874Z,97273.94
2023-03-05T10:45:50.723Z,97269.59
2023-03-05T10:48:42.271Z,97274.88
2023-03-05T10:51:19.771Z,97284.16
2023-03-05T10:53:58.278Z,97287.41
2023-03-05T10:56:29.086Z,97282.78
2023-03-05T10:58:56.972Z,97298.53
2023-03-05T11:01:28.228Z,97309.34
2023-03-05T11:04:00.735Z,97298.19
2023-03-05T11:06:31.483Z,97317.34
2023-03-05T11:09:24.573Z,97324.22
2023-03-05T11:12:08.983Z,97326.75
2023-03-05T11:14:40.073Z,97334.91
2023-03-05T11:17:28.549Z,97331.84
2023-03-05T11:20:17.192Z,97333.09
2023-03-05T11:23:15.862Z,97347.78
2023-03-05T11:25:54.246Z,97345.75
2023-03-05T11:28:33.250Z,97353.88
2023-03-05T11:31:16.676Z,97362.03
2023-03-05T11:34:01.169Z,97358.72
2023-03-05T11:36:30.799Z,97363.78
2023-03-05T11:39:07.823Z,97376.25
2023-03-05T11:41:40.239Z,97377.41
2023-03-05T11:44:23.941Z,97376.34
2023-03-05T11:46:55.972Z,97386.75
2023-03-05T11:49:34.089Z,97397.34
2023-03-05T11:52:18.501Z,97400.03
2023-03-05T11:55:14.822Z,97410.53
2023-03-05T11:58:20.783Z,97413.06
2023-03-05T12:00:49.256Z,97418.56
2023-03-05T12:03:21.335Z,97422.47
2023-03-05T12:05:54.054Z,97430.38
2023-03-05T12:08:28.117Z,97420.47
2023-03-05T12:10:56.817Z,97431.88
2023-03-05T12:13:34.749Z,97434.41
2023-03-05T12:16:24.455Z,97444.53
2023-03-05T12:19:07.808Z,97451.66
2023-03-05T12:21:41.295Z,97450.75
2023-03-05T12:24:27.460Z,97454.88
2023-03-05T12:27:04.865Z,97462.22
2023-03-05T12:29:45.968Z,97468.09
2023-03-05T12:32:22.639Z,97468.81
2023-03-05T12:34:58.136Z,97473.16
2023-03-05T12:37:25.783Z,97488.03
2023-03-05T12:40:08.738Z,97486.25
2023-03-05T12:42:39.339Z,97494.06
2023-03-05T12:45:09.935Z,97494.97
2023-03-05T12:47:42.132Z,97506.09
2023-03-05T12:50:28.307Z,97505.63
2023-03-05T12:53:18.434Z,97510.22
2023-03-05T12:55:51.219Z,97517.81
2023-03-05T12:58:43.035Z,97514.72
2023-03-05T13:01:32.198Z,97523.56
2023-03-05T13:04:11.233Z,97521.03
2023-03-05T13:06:39.663Z,97520.91
2023-03-05T13:09:19.008Z,97529.56
2023-03-05T13:11:51.303Z,97538.47
2023-03-05T13:14:31.676Z,97543.59
2023-03-05T13:17:00.629Z,97538.13
2023-03-05T13:19:29.843Z,97540.53
2023-03-05T13:22:02.702Z,97549.88
2023-03-05T13:24:31.213Z,97559.97
2023-03-05T13:26:58.796Z,97557.47
2023-03-05T13:29:31.327Z,97564.16
2023-03-05T13:32:01.767Z,97563.31
2023-03-05T13:34:47.337Z,97572.66
2023-03-05T13:37:20.843Z,97576.00
2023-03-05T13:39:50.337Z,97570.72
2023-03-05T13:42:21.221Z,97585.91
2023-03-05T13:45:00.758Z,97585.22
2023-03-05T13:47:32.079Z,97591.78
2023-03-05T13:50:02.219Z,97601.09
2023-03-05T13:52:34.107Z,97610.97
2023-03-05T13:55:04.568Z,97603.09
2023-03-05T13:57:43.710Z,97616.19
2023-03-05T14:00:31.773Z,97608.69
2023-03-05T14:03:01.429Z,97621.75
2023-03-05T14:05:31.582Z,97620.09
2023-03-05T14:07:59.303Z,97630.75
2023-03-05T14:10:34.750Z,97629.69
2023-03-05T14:13:13.674Z,97636.31
2023-03-05T14:15:41.441Z,97632.75
2023-03-05T14:18:12.111Z,97636.88
2023-03-05T14:20:41.958Z,97636.75
2023-03-05T14:23:35.933Z,97647.22
2023-03-05T14:26:28.325Z,97651.50
2023-03-05T14:29:00.538Z,97648.44
2023-03-05T14:31:31.155Z,97663.41
2023-03-05T14:34:07.467Z,97663.41
2023-03-05T14:36:35.653Z,97664.69
2023-03-05T14:39:03.530Z,97667.88
2023-03-05T14:41:34.422Z,97666.03
2023-03-05T14:44:02.826Z,97666.91
2023-03-05T14:46:31.360Z,97683.75
2023-03-05T14:48:59.196Z,97684.66
2023-03-05T14:51:26.966Z,97682.06
2023-03-05T14:53:55.167Z,97684.59
2023-03-05T14:56:26.270Z,97687.94
2023-03-05T14:58:54.684Z,97691.13
2023-03-05T15:01:22.223Z,97695.06
2023-03-05T15:03:50.092Z,97698.19
2023-03-05T15:06:30.304Z,97706.78
2023-03-05T15:08:57.827Z,97713.31
2023-03-05T15:11:25.604Z,97709.00
2023-03-05T15:13:53.079Z,97716.69
2023-03-05T15:16:21.529Z,97721.81
2023-03-05T15:18:49.432Z,97726.75
2023-03-05T15:21:16.958Z,97728.63
2023-03-05T15:23:45.467Z,97719.06
2023-03-05T15:26:15.152Z,97729.28
2023-03-05T15:28:43.390Z,97739.19
2023-03-05T15:31:11.598Z,97746.84
2023-03-05T15:33:41.889Z,97756.16
2023-03-05T15:36:10.041Z,97759.50
2023-03-05T15:38:39.066Z,97765.47
2023-03-05T15:41:07.527Z,97767.94
2023-03-05T15:43:35.360Z,97768.06
2023-03-05T15:46:06.262Z,97766.28
2023-03-05T15:48:34.023Z,97765.59
2023-03-05T15:51:06.277Z,97769.84
2023-03-05T15:53:33.774Z,97773.25
2023-03-05T15:56:01.365Z,97780.75
2023-03-05T15:58:28.907Z,97772.94
2023-03-05T16:00:56.699Z,97767.78
2023-03-05T16:03:24.438Z,97784.03
2023-03-05T16:05:52.004Z,97787.41
2023-03-05T16:08:22.098Z,97789.94
2023-03-05T16:10:51.764Z,97791.66
2023-03-05T16:13:21.672Z,97790.00
2023-03-05T16:15:53.393Z,97790.00
2023-03-05T16:18:21.865Z,97794.88
2023-03-05T16:20:49.877Z,97793.59
2023-03-05T16:23:17.518Z,97796.81
2023-03-05T16:25:47.782Z,97798.13
2023-03-05T16:28:15.705Z,97802.97
2023-03-05T16:30:43.946Z,97805.22
2023-03-05T16:33:11.557Z,97806.03
2023-03-05T16:35:39.323Z,97808.53
2023-03-05T16:38:08.537Z,97809.63
2023-03-05T16:41:06.017Z,97812.28
2023-03-05T16:43:28.074Z,97814.16
2023-03-05T16:45:55.597Z,97814.44
2023-03-05T16:48:23.364Z,97816.16
2023-03-05T16:50:50.943Z,97824.78
2023-03-05T16:53:20.022Z,97821.53
2023-03-05T16:55:47.822Z,97823.38
2023-03-05T16:58:15.389Z,97822.53
2023-03-05T17:00:43.315Z,97825.00
2023-03-05T17:03:10.841Z,97833.16
2023-03-05T17:05:40.045Z,97845.72
2023-03-05T17:08:08.371Z,97838.69
2023-03-05T17:10:35.980Z,97840.34
2023-03-05T17:13:04.882Z,97852.91
2023-03-05T17:15:33.626Z,97848.50
2023-03-05T17:18:01.402Z,97850.84
2023-03-05T17:20:29.421Z,97853.38
2023-03-05T17:22:56.917Z,97862.69
2023-03-05T17:25:24.421Z,97866.88
2023-03-05T17:27:52.520Z,97863.59
2023-03-05T17:30:23.055Z,97866.06
2023-03-05T17:32:53.900Z,97867.06
2023-03-05T17:35:22.819Z,97863.47
2023-03-05T17:37:51.817Z,97868.53
2023-03-05T17:40:19.474Z,97861.66
2023-03-05T17:42:46.952Z,97869.97
2023-03-05T17:45:14.778Z,97862.47
2023-03-05T17:47:42.777Z,97864.13
2023-03-05T17:50:11.324Z,97854.00
2023-03-05T17:52:41.098Z,97867.66
2023-03-05T17:55:10.867Z,97867.66
2023-03-05T17:57:43.856Z,97866.88
2023-03-05T18:00:24.440Z,97868.59
2023-03-05T18:02:52.421Z,97858.38
2023-03-05T18:05:22.015Z,97865.31
2023-03-05T18:07:50.233Z,97861.22
2023-03-05T18:10:19.654Z,97869.06
2023-03-05T18:12:48.206Z,97866.81
2023-03-05T18:15:17.758Z,97861.75
2023-03-05T18:17:45.392Z,97872.38
2023-03-05T18:20:25.112Z,97876.94
2023-03-05T18:22:53.178Z,97876.00
2023-03-05T18:25:20.796Z,97875.28
2023-03-05T18:27:48.684Z,97876.28
2023-03-05T18:30:16.247Z,97874.75
2023-03-05T18:32:45.031Z,97878.28
2023-03-05T18:35:14.173Z,97877.41
2023-03-05T18:37:41.884Z,97874.81
2023-03-05T18:40:14.702Z,97879.06
2023-03-05T18:42:43.993Z,97880.69
2023-03-05T18:45:14.441Z,97878.84
2023-03-05T18:47:44.748Z,97887.47
2023-03-05T18:50:15.081Z,97885.47
2023-03-05T18:52:48.142Z,97887.06
2023-03-05T18:55:18.063Z,97886.09
2023-03-05T18:57:45.837Z,97885.47
2023-03-05T19:00:16.038Z,97892.19
2023-03-05T19:02:43.756Z,97899.63
2023-03-05T19:05:13.456Z,97896.22
2023-03-05T19:07:42.017Z,97892.66
2023-03-05T19:10:12.394Z,97892.50
2023-03-05T19:13:32.239Z,97901.44
2023-03-05T19:16:14.201Z,97903.69
2023-03-05T19:19:20.495Z,97901.16
2023-03-05T19:22:06.637Z,97897.75
2023-03-05T19:24:34.673Z,97893.69
2023-03-05T19:27:10.159Z,97900.06
2023-03-05T19:29:38.492Z,97908.16
2023-03-05T19:32:08.874Z,97906.88
2023-03-05T19:34:37.164Z,97909.91
2023-03-05T19:37:08.115Z,97913.06
2023-03-05T19:39:36.415Z,97907.66
2023-03-05T19:42:04.622Z,97908.41
2023-03-05T19:44:32.235Z,97901.81
2023-03-05T19:47:00.050Z,97896.84
2023-03-05T19:49:27.686Z,97890.22
2023-03-05T19:51:55.831Z,97898.16
2023-03-05T19:54:24.793Z,97896.78
2023-03-05T19:56:54.962Z,97897.75
2023-03-05T19:59:24.991Z,97898.16
2023-03-05T20:01:53.743Z,97902.88
2023-03-05T20:04:22.810Z,97893.47
2023-03-05T20:06:51.254Z,97900.47
2023-03-05T20:09:18.913Z,97896.16
2023-03-05T20:11:47.260Z,97899.38
2023-03-05T20:14:14.888Z,97907.91
2023-03-05T20:16:43.638Z,97901.25
2023-03-05T20:19:16.450Z,97905.75
2023-03-05T20:21:45.113Z,97910.91
2023-03-05T20:24:15.872Z,97901.03
2023-03-05T20:26:45.453Z,97899.50
2023-03-05T20:29:17.514Z,97894.94
2023-03-05T20:31:46.488Z,97904.88
2023-03-05T20:34:16.679Z,97898.22
2023-03-05T20:36:44.880Z,97896.44
2023-03-05T20:39:12.704Z,97902.53
2023-03-05T20:41:40.966Z,97910.28
2023-03-05T20:44:08.945Z,97899.09
2023-03-05T20:47:09.990Z,97895.00
2023-03-05T20:49:43.993Z,97906.88
2023-03-05T20:52:11.553Z,97902.78
2023-03-05T20:54:39.024Z,97909.31
2023-03-05T20:57:06.576Z,97904.53
2023-03-05T20:59:34.088Z,97905.41
2023-03-05T21:02:01.717Z,97903.59
2023-03-05T21:04:29.274Z,97904.47
2023-03-05T21:06:58.051Z,97910.25
2023-03-05T21:09:28.379Z,97909.47
2023-03-05T21:11:55.973Z,97909.47
2023-03-05T21:14:23.624Z,97912.19
2023-03-05T21:16:51.113Z,97899.66
2023-03-05T21:19:18.658Z,97913.34
2023-03-05T21:21:46.208Z,97912.41
2023-03-05T21:24:48.504Z,97912.47
2023-03-05T21:27:37.299Z,97917.81
2023-03-05T21:30:05.588Z,97920.09
2023-03-05T21:32:33.255Z,97916.81
2023-03-05T21:35:00.873Z,97913.25
2023-03-05T21:37:28.362Z,97920.84
2023-03-05T21:39:55.847Z,97914.81
2023-03-05T21:42:23.343Z,97915.59
2023-03-05T21:44:50.964Z,97917.22
2023-03-05T21:47:18.536Z,97914.81
2023-03-05T21:49:46.216Z,97913.84
2023-03-05T21:52:13.893Z,97915.66
2023-03-05T21:54:42.468Z,97915.84
2023-03-05T21:57:11.620Z,97915.06
2023-03-05T21:59:42.920Z,97910.28
2023-03-05T22:02:16.287Z,97917.06
2023-03-05T22:04:46.923Z,97919.81
2023-03-05T22:07:16.439Z,97924.75
2023-03-05T22:09:44.764Z,97918.84
2023-03-05T22:13:14.960Z,97920.03
2023-03-05T22:15:56.957Z,97916.38
2023-03-05T22:18:30.353Z,97916.38
2023-03-05T22:20:59.258Z,97915.50
2023-03-05T22:23:30.992Z,97921.34
2023-03-05T22:26:01.290Z,97925.59
2023-03-05T22:28:29.547Z,97915.63
2023-03-05T22:30:57.064Z,97920.03
2023-03-05T22:33:24.928Z,97926.09
2023-03-05T22:35:52.629Z,97926.09
2023-03-05T22:38:20.348Z,97925.34
2023-03-05T22:40:49.596Z,97921.25
2023-03-05T22:43:18.873Z,97924.34
2023-03-05T22:45:46.428Z,97917.22
2023-03-05T22:48:14.726Z,97923.88
2023-03-05T22:50:44.018Z,97906.56
2023-03-05T22:53:12.420Z,97914.06
2023-03-05T22:55:41.361Z,97925.16
2023-03-05T22:58:11.036Z,97918.38
2023-03-05T23:00:38.656Z,97914.81
2023-03-05T23:03:08.906Z,97923.31
2023-03-05T23:05:39.046Z,97917.34
2023-03-05T23:08:07.823Z,97921.41
2023-03-05T23:10:35.516Z,97918.69
2023-03-05T23:13:03.016Z,97917.91
2023-03-05T23:15:38.288Z,97910.19
2023-03-05T23:18:09.024Z,97917.41
2023-03-05T23:20:37.845Z,97914.53
2023-03-05T23:23:05.436Z,97917.81
2023-03-05T23:25:34.564Z,97921.22
2023-03-05T23:28:03.864Z,97920.50
2023-03-05T23:30:34.667Z,97923.75
2023-03-05T23:33:02.276Z,97920.44
2023-03-05T23:35:33.442Z,97925.50
2023-03-05T23:38:05.810Z,97921.38
2023-03-05T23:40:43.576Z,97927.44
2023-03-05T23:43:11.665Z,97918.69
2023-03-05T23:45:45.374Z,97924.03
2023-03-05T23:48:12.867Z,97922.97
2023-03-05T23:50:43.017Z,97925.34
2023-03-05T23:53:11.073Z,97924.41
2023-03-05T23:55:43.963Z,97925.91
2023-03-05T23:58:11.890Z,97929.31
